sensor_id;sensor_type;location;lat;lon;timestamp;P1;durP1;ratioP1;P2;durP2;ratioP2
33279;SDS011;20403;43.114;12.434;2024-02-14T00:02:07;10.68;;;6.10;;
33279;SDS011;20403;43.114;12.434;2024-02-14T00:04:33;9.38;;;5.97;;
33279;SDS011;20403;43.114;12.434;2024-02-14T00:06:59;10.95;;;6.32;;
33279;SDS011;20403;43.114;12.434;2024-02-14T00:09:24;13.60;;;6.53;;
33279;SDS011;20403;43.114;12.434;2024-02-14T00:11:50;13.75;;;6.03;;
33279;SDS011;20403;43.114;12.434;2024-02-14T00:14:16;11.20;;;6.35;;
33279;SDS011;20403;43.114;12.434;2024-02-14T00:16:41;13.70;;;6.13;;
33279;SDS011;20403;43.114;12.434;2024-02-14T00:19:07;9.20;;;6.00;;
33279;SDS011;20403;43.114;12.434;2024-02-14T00:21:32;11.57;;;6.13;;
33279;SDS011;20403;43.114;12.434;2024-02-14T00:23:59;10.55;;;6.78;;
33279;SDS011;20403;43.114;12.434;2024-02-14T00:26:26;9.95;;;5.82;;
33279;SDS011;20403;43.114;12.434;2024-02-14T00:28:52;9.80;;;6.03;;
33279;SDS011;20403;43.114;12.434;2024-02-14T00:31:17;11.77;;;6.00;;
33279;SDS011;20403;43.114;12.434;2024-02-14T00:33:43;10.40;;;5.97;;
33279;SDS011;20403;43.114;12.434;2024-02-14T00:36:10;8.88;;;5.15;;
33279;SDS011;20403;43.114;12.434;2024-02-14T00:38:36;13.65;;;6.30;;
33279;SDS011;20403;43.114;12.434;2024-02-14T00:41:01;13.80;;;6.47;;
33279;SDS011;20403;43.114;12.434;2024-02-14T00:43:26;15.95;;;7.00;;
33279;SDS011;20403;43.114;12.434;2024-02-14T00:45:52;10.45;;;6.15;;
33279;SDS011;20403;43.114;12.434;2024-02-14T00:48:17;13.45;;;6.38;;
33279;SDS011;20403;43.114;12.434;2024-02-14T00:50:42;13.63;;;6.22;;
33279;SDS011;20403;43.114;12.434;2024-02-14T00:53:08;10.00;;;5.80;;
33279;SDS011;20403;43.114;12.434;2024-02-14T00:55:33;12.18;;;6.80;;
33279;SDS011;20403;43.114;12.434;2024-02-14T00:57:59;10.80;;;6.30;;
33279;SDS011;20403;43.114;12.434;2024-02-14T01:00:24;11.05;;;5.82;;
33279;SDS011;20403;43.114;12.434;2024-02-14T01:02:50;12.65;;;5.50;;
33279;SDS011;20403;43.114;12.434;2024-02-14T01:05:16;8.43;;;5.25;;
33279;SDS011;20403;43.114;12.434;2024-02-14T01:07:42;10.23;;;5.88;;
33279;SDS011;20403;43.114;12.434;2024-02-14T01:10:07;13.30;;;6.03;;
33279;SDS011;20403;43.114;12.434;2024-02-14T01:12:33;9.98;;;6.07;;
33279;SDS011;20403;43.114;12.434;2024-02-14T01:14:58;8.90;;;5.78;;
33279;SDS011;20403;43.114;12.434;2024-02-14T01:17:24;10.38;;;6.07;;
33279;SDS011;20403;43.114;12.434;2024-02-14T01:19:50;13.38;;;5.78;;
33279;SDS011;20403;43.114;12.434;2024-02-14T01:22:15;11.57;;;6.22;;
33279;SDS011;20403;43.114;12.434;2024-02-14T01:24:42;9.38;;;5.35;;
33279;SDS011;20403;43.114;12.434;2024-02-14T01:27:08;12.48;;;5.68;;
33279;SDS011;20403;43.114;12.434;2024-02-14T01:29:33;8.98;;;5.32;;
33279;SDS011;20403;43.114;12.434;2024-02-14T01:31:59;12.48;;;6.95;;
33279;SDS011;20403;43.114;12.434;2024-02-14T01:34:24;12.05;;;6.72;;
33279;SDS011;20403;43.114;12.434;2024-02-14T01:36:50;11.57;;;6.53;;
33279;SDS011;20403;43.114;12.434;2024-02-14T01:39:15;9.45;;;5.72;;
33279;SDS011;20403;43.114;12.434;2024-02-14T01:41:46;10.57;;;5.70;;
33279;SDS011;20403;43.114;12.434;2024-02-14T01:44:13;11.48;;;5.78;;
33279;SDS011;20403;43.114;12.434;2024-02-14T01:46:40;10.98;;;6.28;;
33279;SDS011;20403;43.114;12.434;2024-02-14T01:49:06;11.15;;;5.75;;
33279;SDS011;20403;43.114;12.434;2024-02-14T01:51:33;10.07;;;5.38;;
33279;SDS011;20403;43.114;12.434;2024-02-14T07:44:15;12.60;;;7.30;;
33279;SDS011;20403;43.114;12.434;2024-02-14T07:46:40;15.77;;;6.78;;
33279;SDS011;20403;43.114;12.434;2024-02-14T07:49:06;14.48;;;7.47;;
33279;SDS011;20403;43.114;12.434;2024-02-14T07:51:31;28.20;;;8.15;;
33279;SDS011;20403;43.114;12.434;2024-02-14T07:54:02;12.40;;;7.30;;
33279;SDS011;20403;43.114;12.434;2024-02-14T07:56:28;9.95;;;6.45;;
33279;SDS011;20403;43.114;12.434;2024-02-14T07:58:54;11.07;;;7.40;;
33279;SDS011;20403;43.114;12.434;2024-02-14T08:01:19;23.20;;;8.70;;
33279;SDS011;20403;43.114;12.434;2024-02-14T08:03:45;16.80;;;8.10;;
33279;SDS011;20403;43.114;12.434;2024-02-14T08:06:11;21.55;;;7.60;;
33279;SDS011;20403;43.114;12.434;2024-02-14T08:08:37;20.48;;;8.57;;
33279;SDS011;20403;43.114;12.434;2024-02-14T08:11:02;12.27;;;7.38;;
33279;SDS011;20403;43.114;12.434;2024-02-14T08:13:28;15.00;;;7.85;;
33279;SDS011;20403;43.114;12.434;2024-02-14T08:15:53;11.98;;;7.47;;
33279;SDS011;20403;43.114;12.434;2024-02-14T08:18:19;29.17;;;8.23;;
33279;SDS011;20403;43.114;12.434;2024-02-14T08:20:44;17.67;;;8.18;;
33279;SDS011;20403;43.114;12.434;2024-02-14T08:23:10;18.00;;;9.20;;
33279;SDS011;20403;43.114;12.434;2024-02-14T08:25:35;15.95;;;8.38;;
33279;SDS011;20403;43.114;12.434;2024-02-14T08:28:00;13.95;;;7.50;;
33279;SDS011;20403;43.114;12.434;2024-02-14T08:30:26;20.17;;;8.50;;
33279;SDS011;20403;43.114;12.434;2024-02-14T08:32:52;28.67;;;8.75;;
33279;SDS011;20403;43.114;12.434;2024-02-14T08:35:18;14.65;;;7.75;;
33279;SDS011;20403;43.114;12.434;2024-02-14T08:37:43;14.27;;;8.35;;
33279;SDS011;20403;43.114;12.434;2024-02-14T08:40:09;21.20;;;7.95;;
33279;SDS011;20403;43.114;12.434;2024-02-14T08:42:37;21.55;;;8.25;;
33279;SDS011;20403;43.114;12.434;2024-02-14T08:45:03;11.77;;;7.20;;
33279;SDS011;20403;43.114;12.434;2024-02-14T08:47:29;13.07;;;7.85;;
33279;SDS011;20403;43.114;12.434;2024-02-14T08:49:54;15.40;;;8.43;;
33279;SDS011;20403;43.114;12.434;2024-02-14T08:52:20;12.40;;;7.25;;
33279;SDS011;20403;43.114;12.434;2024-02-14T08:54:46;31.55;;;11.13;;
33279;SDS011;20403;43.114;12.434;2024-02-14T08:57:12;18.60;;;8.90;;
33279;SDS011;20403;43.114;12.434;2024-02-14T08:59:37;14.70;;;8.18;;
33279;SDS011;20403;43.114;12.434;2024-02-14T09:02:03;12.77;;;7.32;;
33279;SDS011;20403;43.114;12.434;2024-02-14T09:04:28;17.48;;;9.50;;
33279;SDS011;20403;43.114;12.434;2024-02-14T09:06:53;19.00;;;9.20;;
33279;SDS011;20403;43.114;12.434;2024-02-14T09:09:19;14.80;;;8.32;;
33279;SDS011;20403;43.114;12.434;2024-02-14T09:11:45;18.83;;;9.73;;
33279;SDS011;20403;43.114;12.434;2024-02-14T09:14:11;19.10;;;8.85;;
33279;SDS011;20403;43.114;12.434;2024-02-14T09:16:37;12.75;;;8.75;;
33279;SDS011;20403;43.114;12.434;2024-02-14T09:19:03;22.20;;;9.02;;
33279;SDS011;20403;43.114;12.434;2024-02-14T09:21:32;27.67;;;10.80;;
33279;SDS011;20403;43.114;12.434;2024-02-14T09:23:59;15.13;;;8.77;;
33279;SDS011;20403;43.114;12.434;2024-02-14T09:26:25;13.82;;;8.98;;
33279;SDS011;20403;43.114;12.434;2024-02-14T09:28:51;15.80;;;8.13;;
33279;SDS011;20403;43.114;12.434;2024-02-14T09:31:19;18.05;;;8.82;;
33279;SDS011;20403;43.114;12.434;2024-02-14T09:33:48;22.42;;;9.57;;
33279;SDS011;20403;43.114;12.434;2024-02-14T09:36:21;17.13;;;8.32;;
33279;SDS011;20403;43.114;12.434;2024-02-14T09:38:47;25.02;;;8.80;;
33279;SDS011;20403;43.114;12.434;2024-02-14T09:43:41;19.90;;;9.00;;
33279;SDS011;20403;43.114;12.434;2024-02-14T09:46:09;21.13;;;10.15;;
33279;SDS011;20403;43.114;12.434;2024-02-14T09:48:38;30.20;;;10.25;;
33279;SDS011;20403;43.114;12.434;2024-02-14T09:51:07;38.22;;;10.73;;
33279;SDS011;20403;43.114;12.434;2024-02-14T09:53:34;26.42;;;10.35;;
33279;SDS011;20403;43.114;12.434;2024-02-14T09:56:00;25.63;;;10.13;;
33279;SDS011;20403;43.114;12.434;2024-02-14T09:58:27;24.40;;;10.55;;
33279;SDS011;20403;43.114;12.434;2024-02-14T10:00:54;19.52;;;10.35;;
33279;SDS011;20403;43.114;12.434;2024-02-14T10:03:19;27.27;;;9.77;;
33279;SDS011;20403;43.114;12.434;2024-02-14T10:05:45;27.95;;;9.60;;
33279;SDS011;20403;43.114;12.434;2024-02-14T10:08:10;35.65;;;10.48;;
33279;SDS011;20403;43.114;12.434;2024-02-14T10:10:37;17.73;;;9.27;;
33279;SDS011;20403;43.114;12.434;2024-02-14T10:13:06;16.95;;;9.68;;
33279;SDS011;20403;43.114;12.434;2024-02-14T10:15:32;17.25;;;10.48;;
33279;SDS011;20403;43.114;12.434;2024-02-14T10:17:58;19.63;;;10.23;;
33279;SDS011;20403;43.114;12.434;2024-02-14T10:20:24;16.25;;;10.23;;
33279;SDS011;20403;43.114;12.434;2024-02-14T10:22:51;18.83;;;9.80;;
33279;SDS011;20403;43.114;12.434;2024-02-14T10:25:17;18.05;;;9.88;;
33279;SDS011;20403;43.114;12.434;2024-02-14T10:27:44;18.10;;;10.75;;
33279;SDS011;20403;43.114;12.434;2024-02-14T10:30:11;22.15;;;11.50;;
33279;SDS011;20403;43.114;12.434;2024-02-14T10:32:39;28.08;;;13.18;;
33279;SDS011;20403;43.114;12.434;2024-02-14T10:35:05;26.00;;;14.18;;
33279;SDS011;20403;43.114;12.434;2024-02-14T10:37:37;23.38;;;13.70;;
33279;SDS011;20403;43.114;12.434;2024-02-14T10:40:03;23.45;;;12.73;;
33279;SDS011;20403;43.114;12.434;2024-02-14T10:42:30;25.83;;;14.25;;
33279;SDS011;20403;43.114;12.434;2024-02-14T10:44:56;23.45;;;13.55;;
33279;SDS011;20403;43.114;12.434;2024-02-14T10:47:23;42.88;;;15.48;;
33279;SDS011;20403;43.114;12.434;2024-02-14T10:49:53;26.05;;;13.13;;
33279;SDS011;20403;43.114;12.434;2024-02-14T10:52:22;26.70;;;14.40;;
33279;SDS011;20403;43.114;12.434;2024-02-14T10:54:52;22.02;;;13.65;;
33279;SDS011;20403;43.114;12.434;2024-02-14T10:57:24;23.27;;;13.43;;
33279;SDS011;20403;43.114;12.434;2024-02-14T10:59:50;25.00;;;13.25;;
33279;SDS011;20403;43.114;12.434;2024-02-14T11:02:16;23.40;;;12.75;;
33279;SDS011;20403;43.114;12.434;2024-02-14T11:04:45;27.92;;;12.88;;
33279;SDS011;20403;43.114;12.434;2024-02-14T11:07:10;52.20;;;18.45;;
33279;SDS011;20403;43.114;12.434;2024-02-14T11:09:36;23.55;;;14.10;;
33279;SDS011;20403;43.114;12.434;2024-02-14T11:12:02;27.20;;;14.30;;
33279;SDS011;20403;43.114;12.434;2024-02-14T11:14:32;26.25;;;13.25;;
33279;SDS011;20403;43.114;12.434;2024-02-14T11:17:08;24.70;;;14.68;;
33279;SDS011;20403;43.114;12.434;2024-02-14T11:19:34;30.85;;;14.00;;
33279;SDS011;20403;43.114;12.434;2024-02-14T11:22:12;26.52;;;12.85;;
33279;SDS011;20403;43.114;12.434;2024-02-14T11:24:45;24.42;;;13.40;;
33279;SDS011;20403;43.114;12.434;2024-02-14T11:27:11;25.63;;;13.18;;
33279;SDS011;20403;43.114;12.434;2024-02-14T11:29:38;20.83;;;11.90;;
33279;SDS011;20403;43.114;12.434;2024-02-14T11:32:16;18.58;;;11.95;;
33279;SDS011;20403;43.114;12.434;2024-02-14T11:34:43;29.48;;;11.98;;
33279;SDS011;20403;43.114;12.434;2024-02-14T11:37:09;22.77;;;10.50;;
33279;SDS011;20403;43.114;12.434;2024-02-14T11:39:34;18.75;;;7.95;;
33279;SDS011;20403;43.114;12.434;2024-02-14T11:42:00;13.05;;;6.85;;
33279;SDS011;20403;43.114;12.434;2024-02-14T11:44:26;20.38;;;7.13;;
33279;SDS011;20403;43.114;12.434;2024-02-14T11:46:52;9.93;;;5.00;;
33279;SDS011;20403;43.114;12.434;2024-02-14T11:49:17;13.65;;;6.03;;
33279;SDS011;20403;43.114;12.434;2024-02-14T11:51:43;13.48;;;6.90;;
33279;SDS011;20403;43.114;12.434;2024-02-14T11:54:09;9.88;;;5.35;;
33279;SDS011;20403;43.114;12.434;2024-02-14T11:56:35;9.70;;;5.78;;
33279;SDS011;20403;43.114;12.434;2024-02-14T11:59:06;12.27;;;5.85;;
33279;SDS011;20403;43.114;12.434;2024-02-14T12:01:35;21.40;;;6.20;;
33279;SDS011;20403;43.114;12.434;2024-02-14T12:04:02;17.08;;;5.95;;
33279;SDS011;20403;43.114;12.434;2024-02-14T12:06:31;10.02;;;5.57;;
33279;SDS011;20403;43.114;12.434;2024-02-14T12:09:00;6.90;;;3.45;;
33279;SDS011;20403;43.114;12.434;2024-02-14T12:11:36;9.05;;;3.90;;
33279;SDS011;20403;43.114;12.434;2024-02-14T12:14:03;9.48;;;3.20;;
33279;SDS011;20403;43.114;12.434;2024-02-14T12:16:36;6.88;;;3.65;;
33279;SDS011;20403;43.114;12.434;2024-02-14T12:19:09;7.55;;;3.97;;
33279;SDS011;20403;43.114;12.434;2024-02-14T12:21:40;9.15;;;3.45;;
33279;SDS011;20403;43.114;12.434;2024-02-14T12:24:06;3.42;;;1.67;;
33279;SDS011;20403;43.114;12.434;2024-02-14T12:26:33;4.45;;;2.00;;
33279;SDS011;20403;43.114;12.434;2024-02-14T12:29:03;4.80;;;2.70;;
33279;SDS011;20403;43.114;12.434;2024-02-14T12:31:29;4.97;;;3.20;;
33279;SDS011;20403;43.114;12.434;2024-02-14T12:33:56;4.75;;;2.10;;
33279;SDS011;20403;43.114;12.434;2024-02-14T12:36:24;4.47;;;2.05;;
33279;SDS011;20403;43.114;12.434;2024-02-14T12:38:50;3.22;;;1.80;;
33279;SDS011;20403;43.114;12.434;2024-02-14T12:41:18;7.05;;;1.88;;
33279;SDS011;20403;43.114;12.434;2024-02-14T12:43:43;2.60;;;1.60;;
33279;SDS011;20403;43.114;12.434;2024-02-14T12:46:09;3.15;;;1.90;;
33279;SDS011;20403;43.114;12.434;2024-02-14T12:48:35;4.13;;;1.70;;
33279;SDS011;20403;43.114;12.434;2024-02-14T12:51:00;5.75;;;3.47;;
33279;SDS011;20403;43.114;12.434;2024-02-14T12:53:26;7.65;;;2.83;;
33279;SDS011;20403;43.114;12.434;2024-02-14T12:55:51;4.78;;;3.03;;
33279;SDS011;20403;43.114;12.434;2024-02-14T12:58:17;4.88;;;2.58;;
33279;SDS011;20403;43.114;12.434;2024-02-14T13:00:42;4.78;;;1.95;;
33279;SDS011;20403;43.114;12.434;2024-02-14T13:03:09;8.88;;;2.97;;
33279;SDS011;20403;43.114;12.434;2024-02-14T13:05:35;6.20;;;3.08;;
33279;SDS011;20403;43.114;12.434;2024-02-14T13:08:02;7.20;;;2.78;;
33279;SDS011;20403;43.114;12.434;2024-02-14T13:10:27;5.97;;;2.80;;
33279;SDS011;20403;43.114;12.434;2024-02-14T13:12:54;6.75;;;3.22;;
33279;SDS011;20403;43.114;12.434;2024-02-14T13:15:19;8.60;;;3.45;;
33279;SDS011;20403;43.114;12.434;2024-02-14T13:17:45;7.47;;;2.80;;
33279;SDS011;20403;43.114;12.434;2024-02-14T13:20:11;4.72;;;2.85;;
33279;SDS011;20403;43.114;12.434;2024-02-14T13:22:37;7.82;;;4.13;;
33279;SDS011;20403;43.114;12.434;2024-02-14T13:25:02;7.90;;;2.70;;
33279;SDS011;20403;43.114;12.434;2024-02-14T13:27:30;7.30;;;2.55;;
33279;SDS011;20403;43.114;12.434;2024-02-14T13:29:55;6.72;;;2.67;;
33279;SDS011;20403;43.114;12.434;2024-02-14T13:32:21;5.88;;;2.90;;
33279;SDS011;20403;43.114;12.434;2024-02-14T13:34:46;5.80;;;2.95;;
33279;SDS011;20403;43.114;12.434;2024-02-14T13:37:13;5.90;;;2.05;;
33279;SDS011;20403;43.114;12.434;2024-02-14T13:39:39;4.35;;;1.98;;
33279;SDS011;20403;43.114;12.434;2024-02-14T13:42:05;6.05;;;2.65;;
33279;SDS011;20403;43.114;12.434;2024-02-14T13:44:31;5.88;;;2.67;;
33279;SDS011;20403;43.114;12.434;2024-02-14T13:46:56;9.60;;;3.47;;
33279;SDS011;20403;43.114;12.434;2024-02-14T13:49:21;11.35;;;3.03;;
33279;SDS011;20403;43.114;12.434;2024-02-14T13:51:50;9.55;;;3.55;;
33279;SDS011;20403;43.114;12.434;2024-02-14T13:54:17;12.07;;;3.33;;
33279;SDS011;20403;43.114;12.434;2024-02-14T13:56:46;10.35;;;3.20;;
33279;SDS011;20403;43.114;12.434;2024-02-14T13:59:13;7.13;;;2.70;;
33279;SDS011;20403;43.114;12.434;2024-02-14T14:01:39;7.90;;;2.63;;
33279;SDS011;20403;43.114;12.434;2024-02-14T14:04:04;9.02;;;2.40;;
33279;SDS011;20403;43.114;12.434;2024-02-14T14:06:30;4.88;;;2.50;;
33279;SDS011;20403;43.114;12.434;2024-02-14T14:08:56;4.65;;;2.45;;
33279;SDS011;20403;43.114;12.434;2024-02-14T14:11:21;6.20;;;2.33;;
33279;SDS011;20403;43.114;12.434;2024-02-14T14:13:47;12.80;;;3.13;;
33279;SDS011;20403;43.114;12.434;2024-02-14T14:16:12;8.95;;;2.63;;
33279;SDS011;20403;43.114;12.434;2024-02-14T14:18:38;6.13;;;1.85;;
33279;SDS011;20403;43.114;12.434;2024-02-14T14:21:04;8.25;;;2.20;;
33279;SDS011;20403;43.114;12.434;2024-02-14T14:23:30;3.45;;;2.10;;
33279;SDS011;20403;43.114;12.434;2024-02-14T14:25:55;6.28;;;2.28;;
33279;SDS011;20403;43.114;12.434;2024-02-14T14:28:21;3.53;;;2.05;;
33279;SDS011;20403;43.114;12.434;2024-02-14T14:30:53;5.35;;;2.50;;
33279;SDS011;20403;43.114;12.434;2024-02-14T14:33:19;3.85;;;1.80;;
33279;SDS011;20403;43.114;12.434;2024-02-14T14:35:45;3.03;;;2.08;;
33279;SDS011;20403;43.114;12.434;2024-02-14T14:38:10;7.18;;;2.17;;
33279;SDS011;20403;43.114;12.434;2024-02-14T14:40:36;3.53;;;1.77;;
33279;SDS011;20403;43.114;12.434;2024-02-14T14:43:02;3.63;;;1.90;;
33279;SDS011;20403;43.114;12.434;2024-02-14T14:45:28;8.25;;;2.25;;
33279;SDS011;20403;43.114;12.434;2024-02-14T14:47:53;8.05;;;2.28;;
33279;SDS011;20403;43.114;12.434;2024-02-14T14:50:19;7.97;;;2.10;;
33279;SDS011;20403;43.114;12.434;2024-02-14T14:52:46;3.42;;;1.75;;
33279;SDS011;20403;43.114;12.434;2024-02-14T14:55:11;8.13;;;2.00;;
33279;SDS011;20403;43.114;12.434;2024-02-14T14:57:37;4.95;;;2.10;;
33279;SDS011;20403;43.114;12.434;2024-02-14T15:00:09;6.43;;;2.17;;
33279;SDS011;20403;43.114;12.434;2024-02-14T15:02:38;5.57;;;1.80;;
33279;SDS011;20403;43.114;12.434;2024-02-14T15:07:36;8.90;;;2.30;;
33279;SDS011;20403;43.114;12.434;2024-02-14T15:10:02;6.60;;;2.58;;
33279;SDS011;20403;43.114;12.434;2024-02-14T15:12:28;9.07;;;2.80;;
33279;SDS011;20403;43.114;12.434;2024-02-14T15:14:53;2.95;;;1.52;;
33279;SDS011;20403;43.114;12.434;2024-02-14T15:17:19;9.75;;;2.63;;
33279;SDS011;20403;43.114;12.434;2024-02-14T15:19:46;5.43;;;2.00;;
33279;SDS011;20403;43.114;12.434;2024-02-14T15:22:11;3.35;;;1.95;;
33279;SDS011;20403;43.114;12.434;2024-02-14T15:24:37;4.78;;;2.00;;
33279;SDS011;20403;43.114;12.434;2024-02-14T15:27:05;3.70;;;1.88;;
33279;SDS011;20403;43.114;12.434;2024-02-14T15:29:30;3.95;;;2.13;;
33279;SDS011;20403;43.114;12.434;2024-02-14T15:32:14;4.47;;;2.22;;
33279;SDS011;20403;43.114;12.434;2024-02-14T15:34:59;6.25;;;2.75;;
33279;SDS011;20403;43.114;12.434;2024-02-14T15:37:24;5.30;;;2.60;;
33279;SDS011;20403;43.114;12.434;2024-02-14T15:39:50;9.82;;;3.17;;
33279;SDS011;20403;43.114;12.434;2024-02-14T15:42:17;5.68;;;2.80;;
33279;SDS011;20403;43.114;12.434;2024-02-14T15:44:42;8.45;;;4.47;;
33279;SDS011;20403;43.114;12.434;2024-02-14T15:47:08;5.97;;;2.50;;
33279;SDS011;20403;43.114;12.434;2024-02-14T15:49:35;5.30;;;2.35;;
33279;SDS011;20403;43.114;12.434;2024-02-14T15:52:01;7.72;;;2.10;;
33279;SDS011;20403;43.114;12.434;2024-02-14T15:54:27;9.00;;;2.63;;
33279;SDS011;20403;43.114;12.434;2024-02-14T15:56:52;6.43;;;2.97;;
33279;SDS011;20403;43.114;12.434;2024-02-14T15:59:18;11.57;;;3.28;;
33279;SDS011;20403;43.114;12.434;2024-02-14T16:01:43;8.18;;;3.58;;
33279;SDS011;20403;43.114;12.434;2024-02-14T16:04:09;14.00;;;4.97;;
33279;SDS011;20403;43.114;12.434;2024-02-14T16:06:34;17.30;;;5.25;;
33279;SDS011;20403;43.114;12.434;2024-02-14T16:09:02;10.35;;;4.68;;
33279;SDS011;20403;43.114;12.434;2024-02-14T16:11:31;10.95;;;4.25;;
33279;SDS011;20403;43.114;12.434;2024-02-14T16:13:57;8.20;;;4.15;;
33279;SDS011;20403;43.114;12.434;2024-02-14T16:16:23;7.63;;;4.32;;
33279;SDS011;20403;43.114;12.434;2024-02-14T16:18:48;8.63;;;4.45;;
33279;SDS011;20403;43.114;12.434;2024-02-14T16:21:14;7.68;;;4.78;;
33279;SDS011;20403;43.114;12.434;2024-02-14T16:23:40;11.68;;;4.53;;
33279;SDS011;20403;43.114;12.434;2024-02-14T16:26:06;8.65;;;4.13;;
33279;SDS011;20403;43.114;12.434;2024-02-14T16:28:32;5.63;;;3.60;;
33279;SDS011;20403;43.114;12.434;2024-02-14T16:30:57;12.30;;;4.22;;
33279;SDS011;20403;43.114;12.434;2024-02-14T16:33:23;12.55;;;4.30;;
33279;SDS011;20403;43.114;12.434;2024-02-14T16:35:48;12.18;;;4.38;;
33279;SDS011;20403;43.114;12.434;2024-02-14T16:38:13;11.05;;;3.97;;
33279;SDS011;20403;43.114;12.434;2024-02-14T16:40:39;11.30;;;4.38;;
33279;SDS011;20403;43.114;12.434;2024-02-14T16:43:04;8.80;;;3.25;;
33279;SDS011;20403;43.114;12.434;2024-02-14T16:45:30;11.77;;;3.83;;
33279;SDS011;20403;43.114;12.434;2024-02-14T16:47:56;10.75;;;4.00;;
33279;SDS011;20403;43.114;12.434;2024-02-14T16:50:22;9.02;;;4.55;;
33279;SDS011;20403;43.114;12.434;2024-02-14T16:52:48;14.95;;;6.47;;
33279;SDS011;20403;43.114;12.434;2024-02-14T16:55:14;12.73;;;6.68;;
33279;SDS011;20403;43.114;12.434;2024-02-14T16:57:40;11.50;;;7.00;;
33279;SDS011;20403;43.114;12.434;2024-02-14T17:00:05;8.50;;;4.85;;
33279;SDS011;20403;43.114;12.434;2024-02-14T17:02:31;14.82;;;7.90;;
33279;SDS011;20403;43.114;12.434;2024-02-14T17:04:56;15.40;;;7.05;;
33279;SDS011;20403;43.114;12.434;2024-02-14T17:07:22;16.80;;;6.85;;
33279;SDS011;20403;43.114;12.434;2024-02-14T17:09:47;12.95;;;5.50;;
33279;SDS011;20403;43.114;12.434;2024-02-14T17:12:13;18.05;;;6.72;;
33279;SDS011;20403;43.114;12.434;2024-02-14T17:14:38;11.73;;;5.60;;
33279;SDS011;20403;43.114;12.434;2024-02-14T17:17:04;11.35;;;6.00;;
33279;SDS011;20403;43.114;12.434;2024-02-14T17:19:29;17.80;;;10.45;;
33279;SDS011;20403;43.114;12.434;2024-02-14T17:21:55;20.08;;;9.43;;
33279;SDS011;20403;43.114;12.434;2024-02-14T17:24:20;19.20;;;6.43;;
33279;SDS011;20403;43.114;12.434;2024-02-14T17:26:46;9.93;;;5.82;;
33279;SDS011;20403;43.114;12.434;2024-02-14T17:29:11;15.52;;;5.45;;
33279;SDS011;20403;43.114;12.434;2024-02-14T17:31:37;9.88;;;4.60;;
33279;SDS011;20403;43.114;12.434;2024-02-14T17:34:03;10.88;;;4.75;;
33279;SDS011;20403;43.114;12.434;2024-02-14T17:36:29;10.02;;;4.88;;
33279;SDS011;20403;43.114;12.434;2024-02-14T17:38:55;10.75;;;4.55;;
33279;SDS011;20403;43.114;12.434;2024-02-14T17:41:26;13.32;;;4.63;;
33279;SDS011;20403;43.114;12.434;2024-02-14T17:43:52;16.20;;;6.38;;
33279;SDS011;20403;43.114;12.434;2024-02-14T17:46:18;10.30;;;4.00;;
33279;SDS011;20403;43.114;12.434;2024-02-14T17:48:45;11.35;;;4.68;;
33279;SDS011;20403;43.114;12.434;2024-02-14T17:51:16;11.38;;;4.15;;
33279;SDS011;20403;43.114;12.434;2024-02-14T17:53:41;15.55;;;5.35;;
33279;SDS011;20403;43.114;12.434;2024-02-14T17:56:09;12.52;;;4.45;;
33279;SDS011;20403;43.114;12.434;2024-02-14T17:58:34;8.98;;;3.80;;
33279;SDS011;20403;43.114;12.434;2024-02-14T18:01:01;10.50;;;4.53;;
33279;SDS011;20403;43.114;12.434;2024-02-14T18:03:26;8.90;;;4.32;;
33279;SDS011;20403;43.114;12.434;2024-02-14T18:05:52;10.13;;;4.18;;
33279;SDS011;20403;43.114;12.434;2024-02-14T18:08:18;11.65;;;3.97;;
33279;SDS011;20403;43.114;12.434;2024-02-14T18:10:43;9.77;;;3.92;;
33279;SDS011;20403;43.114;12.434;2024-02-14T18:13:10;7.47;;;3.63;;
33279;SDS011;20403;43.114;12.434;2024-02-14T18:15:37;12.95;;;4.00;;
33279;SDS011;20403;43.114;12.434;2024-02-14T18:18:04;12.40;;;4.00;;
33279;SDS011;20403;43.114;12.434;2024-02-14T18:20:31;10.35;;;3.30;;
33279;SDS011;20403;43.114;12.434;2024-02-14T18:22:58;8.95;;;3.60;;
33279;SDS011;20403;43.114;12.434;2024-02-14T18:25:24;16.10;;;4.10;;
33279;SDS011;20403;43.114;12.434;2024-02-14T18:27:49;10.25;;;3.78;;
33279;SDS011;20403;43.114;12.434;2024-02-14T18:30:15;6.07;;;3.15;;
33279;SDS011;20403;43.114;12.434;2024-02-14T18:32:40;5.90;;;3.40;;
33279;SDS011;20403;43.114;12.434;2024-02-14T18:35:06;10.25;;;4.10;;
33279;SDS011;20403;43.114;12.434;2024-02-14T18:37:32;6.15;;;3.17;;
33279;SDS011;20403;43.114;12.434;2024-02-14T18:39:58;8.32;;;3.40;;
33279;SDS011;20403;43.114;12.434;2024-02-14T18:42:23;12.90;;;3.90;;
33279;SDS011;20403;43.114;12.434;2024-02-14T18:44:48;6.05;;;3.25;;
33279;SDS011;20403;43.114;12.434;2024-02-14T18:47:14;9.57;;;3.42;;
33279;SDS011;20403;43.114;12.434;2024-02-14T18:49:40;7.47;;;3.75;;
33279;SDS011;20403;43.114;12.434;2024-02-14T18:52:09;9.55;;;3.88;;
33279;SDS011;20403;43.114;12.434;2024-02-14T18:54:38;9.98;;;4.40;;
33279;SDS011;20403;43.114;12.434;2024-02-14T18:57:03;7.35;;;4.32;;
33279;SDS011;20403;43.114;12.434;2024-02-14T18:59:37;9.85;;;4.22;;
33279;SDS011;20403;43.114;12.434;2024-02-14T19:02:03;10.15;;;3.95;;
33279;SDS011;20403;43.114;12.434;2024-02-14T19:04:29;12.90;;;4.78;;
33279;SDS011;20403;43.114;12.434;2024-02-14T19:06:56;9.77;;;4.55;;
33279;SDS011;20403;43.114;12.434;2024-02-14T19:09:21;8.98;;;4.00;;
33279;SDS011;20403;43.114;12.434;2024-02-14T19:11:47;13.57;;;4.88;;
33279;SDS011;20403;43.114;12.434;2024-02-14T19:14:12;11.02;;;4.50;;
33279;SDS011;20403;43.114;12.434;2024-02-14T19:16:37;8.23;;;4.00;;
33279;SDS011;20403;43.114;12.434;2024-02-14T19:19:03;8.50;;;4.07;;
33279;SDS011;20403;43.114;12.434;2024-02-14T19:21:29;13.18;;;4.53;;
33279;SDS011;20403;43.114;12.434;2024-02-14T19:23:56;7.70;;;4.10;;
33279;SDS011;20403;43.114;12.434;2024-02-14T19:26:22;14.82;;;4.28;;
33279;SDS011;20403;43.114;12.434;2024-02-14T19:28:47;18.58;;;4.63;;
33279;SDS011;20403;43.114;12.434;2024-02-14T19:31:12;10.07;;;4.53;;
33279;SDS011;20403;43.114;12.434;2024-02-14T19:33:38;21.30;;;5.32;;
33279;SDS011;20403;43.114;12.434;2024-02-14T19:36:03;7.53;;;4.20;;
33279;SDS011;20403;43.114;12.434;2024-02-14T19:38:29;8.43;;;4.32;;
33279;SDS011;20403;43.114;12.434;2024-02-14T19:40:54;11.02;;;4.35;;
33279;SDS011;20403;43.114;12.434;2024-02-14T19:43:20;9.38;;;4.95;;
33279;SDS011;20403;43.114;12.434;2024-02-14T19:45:48;10.23;;;5.13;;
33279;SDS011;20403;43.114;12.434;2024-02-14T19:48:14;9.57;;;5.10;;
33279;SDS011;20403;43.114;12.434;2024-02-14T19:50:40;7.95;;;4.50;;
33279;SDS011;20403;43.114;12.434;2024-02-14T19:53:05;10.90;;;4.75;;
33279;SDS011;20403;43.114;12.434;2024-02-14T19:55:30;7.97;;;4.75;;
33279;SDS011;20403;43.114;12.434;2024-02-14T19:57:57;10.23;;;4.78;;
33279;SDS011;20403;43.114;12.434;2024-02-14T20:00:22;15.27;;;4.85;;
33279;SDS011;20403;43.114;12.434;2024-02-14T20:02:48;9.48;;;4.50;;
33279;SDS011;20403;43.114;12.434;2024-02-14T20:05:13;10.98;;;4.82;;
33279;SDS011;20403;43.114;12.434;2024-02-14T20:07:39;7.00;;;4.72;;
33279;SDS011;20403;43.114;12.434;2024-02-14T20:10:07;6.60;;;3.95;;
33279;SDS011;20403;43.114;12.434;2024-02-14T20:12:34;17.08;;;4.65;;
33279;SDS011;20403;43.114;12.434;2024-02-14T20:15:03;7.75;;;4.38;;
33279;SDS011;20403;43.114;12.434;2024-02-14T20:17:33;8.80;;;4.30;;